createdAt,value
2017-04-21T00:00:09.096Z,20.93
2017-04-21T00:01:08.911Z,19.97
2017-04-21T00:02:09.468Z,19.48
2017-04-21T00:03:09.300Z,20.95
2017-04-21T00:04:10.498Z,19.60
2017-04-21T00:05:11.281Z,22.47
2017-04-21T00:06:11.890Z,22.75
2017-04-21T00:07:11.621Z,26.73
2017-04-21T00:08:12.333Z,24.00
2017-04-21T00:09:13.100Z,20.07
2017-04-21T00:10:13.056Z,21.85
2017-04-21T00:11:13.188Z,18.93
2017-04-21T00:12:13.381Z,22.60
2017-04-21T00:13:13.700Z,26.77
2017-04-21T00:14:14.553Z,23.17
2017-04-21T00:15:14.579Z,24.95
2017-04-21T00:16:14.689Z,23.18
2017-04-21T00:17:14.436Z,26.50
2017-04-21T00:18:14.148Z,24.18
2017-04-21T00:19:14.076Z,23.18
2017-04-21T00:20:13.834Z,20.93
2017-04-21T00:21:14.532Z,27.82
2017-04-21T00:22:14.321Z,24.52
2017-04-21T00:23:14.313Z,23.53
2017-04-21T00:24:14.185Z,27.25
2017-04-21T00:25:15.107Z,27.45
2017-04-21T00:26:15.064Z,21.65
2017-04-21T00:27:15.428Z,24.90
2017-04-21T00:28:15.312Z,22.60
2017-04-21T00:29:15.071Z,27.53
2017-04-21T00:30:14.894Z,28.10
2017-04-21T00:31:15.503Z,23.73
2017-04-21T00:32:15.316Z,25.87
2017-04-21T00:33:15.122Z,23.83
2017-04-21T00:34:14.928Z,22.72
2017-04-21T00:35:14.855Z,27.53
2017-04-21T00:36:15.620Z,22.87
2017-04-21T00:37:15.381Z,27.62
2017-04-21T00:38:15.493Z,27.55
2017-04-21T00:39:15.308Z,22.75
2017-04-21T00:40:15.825Z,25.43
2017-04-21T00:41:15.730Z,20.58
2017-04-21T00:42:15.787Z,23.92
2017-04-21T00:43:17.277Z,25.48
2017-04-21T00:44:17.800Z,25.70
2017-04-21T00:45:17.612Z,21.27
2017-04-21T00:46:17.368Z,22.25
2017-04-21T00:47:17.588Z,22.47
2017-04-21T00:48:17.520Z,22.40
2017-04-21T00:49:18.066Z,25.48
2017-04-21T00:50:18.047Z,23.83
2017-04-21T00:51:17.862Z,24.17
2017-04-21T00:52:18.453Z,21.47
2017-04-21T00:53:18.338Z,20.68
2017-04-21T00:54:18.052Z,19.50
2017-04-21T00:55:17.864Z,27.35
2017-04-21T00:56:17.733Z,21.55
2017-04-21T00:57:17.502Z,23.50
2017-04-21T00:58:17.353Z,20.83
2017-04-21T00:59:17.304Z,17.93
2017-04-21T01:00:17.979Z,19.03
2017-04-21T01:01:17.761Z,18.97
2017-04-21T01:02:17.541Z,22.50
2017-04-21T01:03:17.492Z,19.75
2017-04-21T01:04:17.383Z,19.72
2017-04-21T01:05:17.211Z,27.97
2017-04-21T01:06:17.066Z,20.52
2017-04-21T01:07:17.067Z,25.65
2017-04-21T01:08:16.856Z,21.88
2017-04-21T01:09:17.535Z,25.72
2017-04-21T01:10:17.750Z,22.13
2017-04-21T01:11:17.672Z,17.27
2017-04-21T01:12:17.923Z,19.45
2017-04-21T01:13:17.732Z,21.32
2017-04-21T01:14:17.671Z,25.98
2017-04-21T01:15:18.017Z,18.35
2017-04-21T01:16:17.746Z,19.02
2017-04-21T01:17:17.765Z,19.83
2017-04-21T01:18:17.542Z,20.30
2017-04-21T01:19:17.330Z,22.33
2017-04-21T01:20:17.895Z,19.40
2017-04-21T01:21:17.588Z,21.02
2017-04-21T01:22:18.298Z,21.83
2017-04-21T01:23:18.891Z,18.77
2017-04-21T01:24:18.584Z,21.82
2017-04-21T01:25:18.885Z,22.45
2017-04-21T01:26:18.626Z,25.33
2017-04-21T01:27:18.423Z,21.85
2017-04-21T01:28:19.005Z,25.32
2017-04-21T01:29:18.969Z,21.23
2017-04-21T01:30:18.785Z,22.25
2017-04-21T01:31:18.433Z,19.28
2017-04-21T01:32:18.210Z,19.37
2017-04-21T01:33:18.070Z,20.78
2017-04-21T01:34:17.868Z,24.62
2017-04-21T01:35:17.770Z,24.62
2017-04-21T01:36:16.775Z,19.77
2017-04-21T01:37:16.657Z,23.53
2017-04-21T01:38:16.868Z,19.82
2017-04-21T01:39:17.346Z,18.33
2017-04-21T01:40:18.028Z,18.92
2017-04-21T01:41:18.009Z,23.22
2017-04-21T01:42:17.764Z,19.63
2017-04-21T01:43:18.293Z,18.13
2017-04-21T01:44:18.389Z,18.40
2017-04-21T01:45:18.361Z,28.43
2017-04-21T01:46:18.937Z,26.65
2017-04-21T01:47:18.894Z,23.00
2017-04-21T01:48:18.727Z,20.73
2017-04-21T01:49:18.566Z,21.73
2017-04-21T01:50:19.225Z,21.05
2017-04-21T01:51:19.170Z,18.62
2017-04-21T01:52:18.946Z,21.90
2017-04-21T01:53:19.536Z,26.62
2017-04-21T01:54:19.357Z,21.32
2017-04-21T01:55:19.118Z,19.38
2017-04-21T01:56:20.149Z,20.75
2017-04-21T01:57:19.889Z,22.02
2017-04-21T01:58:19.697Z,18.72
2017-04-21T01:59:19.577Z,23.65
2017-04-21T02:00:19.457Z,21.82
2017-04-21T02:01:19.198Z,20.07
2017-04-21T02:02:19.220Z,21.77
2017-04-21T02:03:19.022Z,23.62
2017-04-21T02:04:18.960Z,22.48
2017-04-21T02:05:19.496Z,24.73
2017-04-21T02:06:19.319Z,21.18
2017-04-21T02:07:19.238Z,15.78
2017-04-21T02:08:19.079Z,16.63
2017-04-21T02:09:18.907Z,18.72
2017-04-21T02:10:18.757Z,22.93
2017-04-21T02:11:18.011Z,22.20
2017-04-21T02:12:17.166Z,28.02
2017-04-21T02:13:16.355Z,29.93
2017-04-21T02:14:15.579Z,20.95
2017-04-21T02:15:14.761Z,22.85
2017-04-21T02:16:13.902Z,21.83
2017-04-21T02:17:13.047Z,19.78
2017-04-21T02:18:12.271Z,22.02
2017-04-21T02:19:11.415Z,22.77
2017-04-21T02:20:10.620Z,23.08
2017-04-21T02:21:09.787Z,19.93
2017-04-21T02:22:08.927Z,19.65
2017-04-21T02:23:08.083Z,22.22
2017-04-21T02:24:07.973Z,20.08
2017-04-21T02:25:07.116Z,22.82
2017-04-21T02:26:06.340Z,21.53
2017-04-21T02:27:05.531Z,20.35
2017-04-21T02:28:04.659Z,23.03
2017-04-21T02:29:03.799Z,25.07
2017-04-21T02:30:03.189Z,21.53
2017-04-21T02:31:02.319Z,23.93
2017-04-21T02:32:01.464Z,21.35
2017-04-21T02:33:00.591Z,29.00
2017-04-21T02:33:59.799Z,24.92
2017-04-21T02:34:58.939Z,26.37
2017-04-21T02:35:58.124Z,23.00
2017-04-21T02:36:57.268Z,25.43
2017-04-21T02:37:56.395Z,25.10
2017-04-21T02:38:55.536Z,27.12
2017-04-21T02:39:54.691Z,25.95
2017-04-21T02:40:54.585Z,19.08
2017-04-21T02:41:53.759Z,23.22
2017-04-21T02:42:52.897Z,30.23
2017-04-21T02:43:52.028Z,28.62
2017-04-21T02:44:51.948Z,23.93
2017-04-21T02:45:51.092Z,26.47
2017-04-21T02:46:50.235Z,27.87
2017-04-21T02:47:49.685Z,29.02
2017-04-21T02:48:48.824Z,24.23
2017-04-21T02:49:47.987Z,23.78
2017-04-21T02:50:47.127Z,28.67
2017-04-21T02:51:46.279Z,29.45
2017-04-21T02:52:45.440Z,26.37
2017-04-21T02:53:44.611Z,20.27
2017-04-21T02:54:43.788Z,23.35
2017-04-21T02:55:42.935Z,30.23
2017-04-21T02:56:42.787Z,25.47
2017-04-21T02:57:41.929Z,27.38
2017-04-21T02:58:41.067Z,27.68
2017-04-21T02:59:40.987Z,27.42
2017-04-21T03:00:40.180Z,29.77
2017-04-21T03:01:39.335Z,31.68
2017-04-21T03:02:39.272Z,29.58
2017-04-21T03:03:38.411Z,26.43
2017-04-21T03:04:37.600Z,30.18
2017-04-21T03:05:36.727Z,29.72
2017-04-21T03:06:35.808Z,25.20
2017-04-21T03:07:34.940Z,25.93
2017-04-21T03:08:34.076Z,25.37
2017-04-21T03:09:33.168Z,23.43
2017-04-21T03:10:32.252Z,33.05
2017-04-21T03:11:31.339Z,25.92
2017-04-21T03:12:30.439Z,27.20
2017-04-21T03:13:29.527Z,32.75
2017-04-21T03:14:29.384Z,29.98
2017-04-21T03:15:28.475Z,24.58
2017-04-21T03:16:27.568Z,29.33
2017-04-21T03:17:26.679Z,30.80
2017-04-21T03:18:25.768Z,25.32
2017-04-21T03:19:24.848Z,24.82
2017-04-21T03:20:23.968Z,26.67
2017-04-21T03:21:23.067Z,29.35
2017-04-21T03:22:22.156Z,31.45
2017-04-21T03:23:21.255Z,28.55
2017-04-21T03:24:20.359Z,31.28
2017-04-21T03:25:19.727Z,29.43
2017-04-21T03:26:18.843Z,26.92
2017-04-21T03:27:17.950Z,30.70
2017-04-21T03:28:17.791Z,31.23
2017-04-21T03:29:16.885Z,29.13
2017-04-21T03:30:15.987Z,29.52
2017-04-21T03:31:15.130Z,27.82
2017-04-21T03:32:14.227Z,30.73
2017-04-21T03:33:13.330Z,31.67
2017-04-21T03:34:12.428Z,28.32
2017-04-21T03:35:11.528Z,34.88
2017-04-21T03:36:10.628Z,31.43
2017-04-21T03:37:09.761Z,27.45
2017-04-21T03:38:08.847Z,21.50
2017-04-21T03:39:07.929Z,27.57
2017-04-21T03:40:07.015Z,35.32
2017-04-21T03:41:06.101Z,27.48
2017-04-21T03:42:05.191Z,28.73
2017-04-21T03:43:04.325Z,32.83
2017-04-21T03:44:03.415Z,32.48
2017-04-21T03:45:02.500Z,29.92
2017-04-21T03:46:01.587Z,32.05
2017-04-21T03:47:00.676Z,25.85
2017-04-21T03:48:00.095Z,22.92
2017-04-21T03:48:59.333Z,31.13
2017-04-21T03:49:58.421Z,33.00
2017-04-21T03:50:57.511Z,28.68
2017-04-21T03:51:56.635Z,28.25
2017-04-21T03:52:55.724Z,28.02
2017-04-21T03:53:54.811Z,28.68
2017-04-21T03:54:53.936Z,28.35
2017-04-21T03:55:53.018Z,32.80
2017-04-21T03:56:52.132Z,29.65
2017-04-21T03:57:51.224Z,28.82
2017-04-21T03:58:50.308Z,32.47
2017-04-21T03:59:49.395Z,31.13
2017-04-21T04:00:48.560Z,31.30
2017-04-21T04:01:47.652Z,31.88
2017-04-21T04:02:46.753Z,28.53
2017-04-21T04:03:45.864Z,31.38
2017-04-21T04:04:44.951Z,39.72
2017-04-21T04:05:44.168Z,24.00
2017-04-21T04:06:43.336Z,31.57
2017-04-21T04:07:42.472Z,30.00
2017-04-21T04:08:41.608Z,29.35
2017-04-21T04:09:40.753Z,36.17
2017-04-21T04:10:39.915Z,30.90
2017-04-21T04:11:39.099Z,31.12
2017-04-21T04:12:38.244Z,32.08
2017-04-21T04:13:37.378Z,32.45
2017-04-21T04:14:36.519Z,31.13
2017-04-21T04:15:35.664Z,33.82
2017-04-21T04:16:34.839Z,29.30
2017-04-21T04:17:34.024Z,40.15
2017-04-21T04:18:33.202Z,34.17
2017-04-21T04:19:32.371Z,28.92
2017-04-21T04:20:31.755Z,27.35
2017-04-21T04:21:30.900Z,33.87
2017-04-21T04:22:30.043Z,30.38
2017-04-21T04:23:29.272Z,24.70
2017-04-21T04:24:28.411Z,32.50
2017-04-21T04:25:27.571Z,25.65
2017-04-21T04:26:27.461Z,28.72
2017-04-21T04:27:26.603Z,26.70
2017-04-21T04:28:25.748Z,36.45
2017-04-21T04:29:24.951Z,33.02
2017-04-21T04:30:24.109Z,24.40
2017-04-21T04:31:23.256Z,23.22
2017-04-21T04:32:22.394Z,35.10
2017-04-21T04:33:21.526Z,28.85
2017-04-21T04:34:20.664Z,26.95
2017-04-21T04:35:20.583Z,27.47
2017-04-21T04:36:20.468Z,30.12
2017-04-21T04:37:19.647Z,28.97
2017-04-21T04:38:18.791Z,35.05
2017-04-21T04:39:17.936Z,31.67
2017-04-21T04:40:17.075Z,28.13
2017-04-21T04:41:16.277Z,26.15
2017-04-21T04:42:15.455Z,32.67
2017-04-21T04:43:14.625Z,33.35
2017-04-21T04:44:13.768Z,28.27
2017-04-21T04:45:12.910Z,27.87
2017-04-21T04:46:12.108Z,29.20
2017-04-21T04:47:11.294Z,26.32
2017-04-21T04:48:10.435Z,31.28
2017-04-21T04:49:09.580Z,30.12
2017-04-21T04:50:08.743Z,34.50
2017-04-21T04:51:07.895Z,31.15
2017-04-21T04:52:07.781Z,26.93
2017-04-21T04:53:06.966Z,26.78
2017-04-21T04:54:06.103Z,29.08
2017-04-21T04:55:05.248Z,29.12
2017-04-21T04:56:04.400Z,28.88
2017-04-21T04:57:03.591Z,33.35
2017-04-21T04:58:02.729Z,34.67
2017-04-21T04:59:02.633Z,37.07
2017-04-21T05:00:02.520Z,29.25
2017-04-21T05:01:01.659Z,29.97
2017-04-21T05:02:00.809Z,32.63
2017-04-21T05:03:00.691Z,30.65
2017-04-21T05:04:00.123Z,39.15
2017-04-21T05:04:59.452Z,29.45
2017-04-21T05:05:58.627Z,31.28
2017-04-21T05:06:57.987Z,33.20
2017-04-21T05:07:57.374Z,31.85
2017-04-21T05:08:56.524Z,34.22
2017-04-21T05:09:55.705Z,28.62
2017-04-21T05:10:54.991Z,38.22
2017-04-21T05:11:54.133Z,34.43
2017-04-21T05:12:53.271Z,33.05
2017-04-21T05:13:52.495Z,31.57
2017-04-21T05:14:51.591Z,34.45
2017-04-21T05:15:50.765Z,28.38
2017-04-21T05:16:50.632Z,34.67
2017-04-21T05:17:49.774Z,37.43
2017-04-21T05:18:48.872Z,29.40
2017-04-21T05:19:47.963Z,37.98
2017-04-21T05:20:47.047Z,31.07
2017-04-21T05:21:46.167Z,27.50
2017-04-21T05:22:45.295Z,37.13
2017-04-21T05:23:44.383Z,31.92
2017-04-21T05:24:43.500Z,33.15
2017-04-21T05:25:42.595Z,31.72
2017-04-21T05:26:41.691Z,28.53
2017-04-21T05:27:40.794Z,32.25
2017-04-21T05:28:39.932Z,32.12
2017-04-21T05:29:39.030Z,39.27
2017-04-21T05:30:39.720Z,36.37
2017-04-21T05:31:38.832Z,31.42
2017-04-21T05:32:37.980Z,29.23
2017-04-21T05:33:37.836Z,30.20
2017-04-21T05:34:36.960Z,34.48
2017-04-21T05:35:36.047Z,27.52
2017-04-21T05:36:35.874Z,37.47
2017-04-21T05:37:34.968Z,33.03
2017-04-21T05:38:34.052Z,34.85
2017-04-21T05:39:33.171Z,35.67
2017-04-21T05:40:32.301Z,30.83
2017-04-21T05:41:32.141Z,29.83
2017-04-21T05:42:31.257Z,36.98
2017-04-21T05:43:30.349Z,33.72
2017-04-21T05:44:29.471Z,34.95
2017-04-21T05:45:28.567Z,35.53
2017-04-21T05:46:27.704Z,42.32
2017-04-21T05:47:26.808Z,39.53
2017-04-21T05:48:26.643Z,37.13
2017-04-21T05:49:25.739Z,33.73
2017-04-21T05:50:24.831Z,40.03
2017-04-21T05:51:23.920Z,34.32
2017-04-21T05:52:23.043Z,35.72
2017-04-21T05:53:22.139Z,35.40
2017-04-21T05:54:22.008Z,35.17
2017-04-21T05:55:21.104Z,38.72
2017-04-21T05:56:20.195Z,34.82
2017-04-21T05:57:19.293Z,34.02
2017-04-21T05:58:19.120Z,44.42
2017-04-21T05:59:18.239Z,40.43
2017-04-21T06:00:17.343Z,42.33
2017-04-21T06:01:16.468Z,34.82
2017-04-21T06:02:15.566Z,36.25
2017-04-21T06:03:14.664Z,34.52
2017-04-21T06:04:13.788Z,34.73
2017-04-21T06:05:12.889Z,40.17
2017-04-21T06:06:12.751Z,44.20
2017-04-21T06:07:11.891Z,38.37
2017-04-21T06:08:12.252Z,35.08
2017-04-21T06:09:11.349Z,39.02
2017-04-21T06:10:10.436Z,36.30
2017-04-21T06:11:09.527Z,35.77
2017-04-21T06:12:08.619Z,37.47
2017-04-21T06:13:07.756Z,36.40
2017-04-21T06:14:06.933Z,39.32
2017-04-21T06:15:06.087Z,35.90
2017-04-21T06:16:05.219Z,36.62
2017-04-21T06:17:04.360Z,40.60
2017-04-21T06:18:03.539Z,33.65
2017-04-21T06:19:02.720Z,33.60
2017-04-21T06:20:01.868Z,37.72
2017-04-21T06:21:01.012Z,35.08
2017-04-21T06:22:00.152Z,36.28
2017-04-21T06:22:59.294Z,36.70
2017-04-21T06:23:58.432Z,40.15
2017-04-21T06:24:57.664Z,42.63
2017-04-21T06:25:56.796Z,35.90
2017-04-21T06:26:55.946Z,33.98
2017-04-21T06:27:55.836Z,41.53
2017-04-21T06:28:54.975Z,42.17
2017-04-21T06:29:54.112Z,44.32
2017-04-21T06:30:53.303Z,31.93
2017-04-21T06:31:53.187Z,34.90
2017-04-21T06:32:52.328Z,35.33
2017-04-21T06:33:51.503Z,35.17
2017-04-21T06:34:50.668Z,39.62
2017-04-21T06:35:49.835Z,36.90
2017-04-21T06:36:49.004Z,37.17
2017-04-21T06:37:48.143Z,40.93
2017-04-21T06:38:48.023Z,34.25
2017-04-21T06:39:47.168Z,36.42
2017-04-21T06:40:46.317Z,35.20
2017-04-21T06:41:45.451Z,33.35
2017-04-21T06:42:44.652Z,41.63
2017-04-21T06:43:43.790Z,39.70
2017-04-21T06:44:42.942Z,30.42
2017-04-21T06:45:42.080Z,32.85
2017-04-21T06:46:41.252Z,33.27
2017-04-21T06:47:40.444Z,37.60
2017-04-21T06:48:40.198Z,38.85
2017-04-21T06:49:39.747Z,38.13
2017-04-21T06:50:38.971Z,32.47
2017-04-21T06:51:38.140Z,38.33
2017-04-21T06:52:37.302Z,42.38
2017-04-21T06:53:37.469Z,37.55
2017-04-21T06:54:36.795Z,39.78
2017-04-21T06:55:36.459Z,37.40
2017-04-21T06:56:35.599Z,33.98
2017-04-21T06:57:34.735Z,37.30
2017-04-21T06:58:33.881Z,36.80
2017-04-21T06:59:33.027Z,41.33
2017-04-21T07:00:32.206Z,39.10
2017-04-21T07:01:31.339Z,42.17
2017-04-21T07:02:35.028Z,34.02
2017-04-21T07:03:34.179Z,37.28
2017-04-21T07:04:34.065Z,41.67
2017-04-21T07:05:33.224Z,41.72
2017-04-21T07:06:32.376Z,38.32
2017-04-21T07:07:31.545Z,37.08
2017-04-21T07:08:30.759Z,42.18
2017-04-21T07:09:29.897Z,32.08
2017-04-21T07:10:29.043Z,39.03
2017-04-21T07:11:28.183Z,34.50
2017-04-21T07:12:27.347Z,35.67
2017-04-21T07:13:26.484Z,42.10
2017-04-21T07:14:26.356Z,36.00
2017-04-21T07:15:25.444Z,36.32
2017-04-21T07:16:24.548Z,34.82
2017-04-21T07:17:23.679Z,35.02
2017-04-21T07:18:22.763Z,38.52
2017-04-21T07:19:21.851Z,41.72
2017-04-21T07:20:20.983Z,33.77
2017-04-21T07:21:20.488Z,43.95
2017-04-21T07:22:19.579Z,32.62
2017-04-21T07:23:19.653Z,34.57
2017-04-21T07:24:18.745Z,34.85
2017-04-21T07:25:17.855Z,35.52
2017-04-21T07:26:17.262Z,36.32
2017-04-21T07:27:16.347Z,37.88
2017-04-21T07:28:15.459Z,35.80
2017-04-21T07:29:14.780Z,42.02
2017-04-21T07:30:13.869Z,35.80
2017-04-21T07:31:13.120Z,36.25
2017-04-21T07:32:12.208Z,34.48
2017-04-21T07:33:11.306Z,33.68
2017-04-21T07:34:10.403Z,33.85
2017-04-21T07:35:09.705Z,38.05
2017-04-21T07:36:08.808Z,37.27
2017-04-21T07:37:07.978Z,39.08
2017-04-21T07:38:07.096Z,37.58
2017-04-21T07:39:06.960Z,42.30
2017-04-21T07:40:06.068Z,33.20
2017-04-21T07:41:05.245Z,40.72
2017-04-21T07:42:04.333Z,39.40
2017-04-21T07:43:03.427Z,37.62
2017-04-21T07:44:02.851Z,35.22
2017-04-21T07:45:01.939Z,33.75
2017-04-21T07:46:01.088Z,38.97
2017-04-21T07:47:00.364Z,36.97
2017-04-21T07:47:59.539Z,39.63
2017-04-21T07:48:58.676Z,41.02
2017-04-21T07:49:58.596Z,37.17
2017-04-21T07:50:57.748Z,37.88
2017-04-21T07:51:56.892Z,34.60
2017-04-21T07:52:56.059Z,35.72
2017-04-21T07:53:55.200Z,42.52
2017-04-21T07:54:54.386Z,37.10
2017-04-21T07:55:53.536Z,33.57
2017-04-21T07:56:52.688Z,36.30
2017-04-21T07:57:51.840Z,33.05
2017-04-21T07:58:50.999Z,30.52
2017-04-21T07:59:54.583Z,37.35
2017-04-21T08:00:49.403Z,38.47
2017-04-21T08:01:48.568Z,38.82
2017-04-21T08:02:47.718Z,39.67
2017-04-21T08:03:46.885Z,35.13
2017-04-21T08:04:46.367Z,40.67
2017-04-21T08:05:45.524Z,34.93
2017-04-21T08:06:44.684Z,36.95
2017-04-21T08:07:43.876Z,42.10
2017-04-21T08:08:43.053Z,37.37
2017-04-21T08:09:42.408Z,36.18
2017-04-21T08:10:41.609Z,38.37
2017-04-21T08:11:40.756Z,41.80
2017-04-21T08:12:39.910Z,37.47
2017-04-21T08:13:39.817Z,37.08
2017-04-21T08:14:39.025Z,36.02
2017-04-21T08:15:38.192Z,34.50
2017-04-21T08:16:37.364Z,39.28
2017-04-21T08:17:37.304Z,35.10
2017-04-21T08:18:36.488Z,39.58
2017-04-21T08:19:35.716Z,39.20
2017-04-21T08:20:35.008Z,39.40
2017-04-21T08:21:34.164Z,37.65
2017-04-21T08:22:33.317Z,39.12
2017-04-21T08:23:32.473Z,46.18
2017-04-21T08:24:31.659Z,39.02
2017-04-21T08:25:30.843Z,39.52
2017-04-21T08:26:30.025Z,42.62
2017-04-21T08:27:29.175Z,40.93
2017-04-21T08:28:28.320Z,40.02
2017-04-21T08:29:27.471Z,37.33
2017-04-21T08:30:26.694Z,35.17
2017-04-21T08:31:25.835Z,38.50
2017-04-21T08:32:25.016Z,40.43
2017-04-21T08:33:24.427Z,38.22
2017-04-21T08:34:23.567Z,39.65
2017-04-21T08:35:23.451Z,32.55
2017-04-21T08:36:22.627Z,37.38
2017-04-21T08:37:22.019Z,37.22
2017-04-21T08:38:23.397Z,36.47
2017-04-21T08:39:23.288Z,39.47
2017-04-21T08:40:22.467Z,36.62
2017-04-21T08:41:21.623Z,38.03
2017-04-21T08:42:20.779Z,38.43
2017-04-21T08:43:19.944Z,41.03
2017-04-21T08:44:19.887Z,34.50
2017-04-21T08:45:19.039Z,35.93
2017-04-21T08:46:18.927Z,39.40
2017-04-21T08:47:18.075Z,38.35
2017-04-21T08:48:17.220Z,38.02
2017-04-21T08:49:16.376Z,37.55
2017-04-21T08:50:15.756Z,40.15
2017-04-21T08:51:14.931Z,36.37
2017-04-21T08:52:14.087Z,37.75
2017-04-21T08:53:13.243Z,37.72
2017-04-21T08:54:12.383Z,36.72
2017-04-21T08:55:11.562Z,35.90
2017-04-21T08:56:10.739Z,32.65
2017-04-21T08:57:09.888Z,38.37
2017-04-21T08:58:09.789Z,38.73
2017-04-21T08:59:08.935Z,37.07
2017-04-21T09:00:08.196Z,38.80
2017-04-21T09:01:07.356Z,34.78
2017-04-21T09:02:06.543Z,41.02
2017-04-21T09:03:05.712Z,37.32
2017-04-21T09:04:04.879Z,36.18
2017-04-21T09:05:04.052Z,39.07
2017-04-21T09:06:03.251Z,34.98
2017-04-21T09:07:02.419Z,37.47
2017-04-21T09:08:01.579Z,37.42
2017-04-21T09:09:01.476Z,36.88
2017-04-21T09:10:00.627Z,37.63
2017-04-21T09:11:00.521Z,36.47
2017-04-21T09:11:59.796Z,35.40
2017-04-21T09:12:58.943Z,33.35
2017-04-21T09:13:58.087Z,41.57
2017-04-21T09:14:57.244Z,38.12
2017-04-21T09:15:56.407Z,34.87
2017-04-21T09:16:55.547Z,39.22
2017-04-21T09:17:54.925Z,36.02
2017-04-21T09:18:54.118Z,38.53
2017-04-21T09:19:53.268Z,36.08
2017-04-21T09:20:53.164Z,34.75
2017-04-21T09:21:53.711Z,34.43
2017-04-21T09:22:52.860Z,37.57
2017-04-21T09:23:52.056Z,36.12
2017-04-21T09:24:51.203Z,38.42
2017-04-21T09:25:50.350Z,34.00
2017-04-21T09:26:50.275Z,41.68
2017-04-21T09:27:49.444Z,37.60
2017-04-21T09:28:49.409Z,35.45
2017-04-21T09:29:48.583Z,34.83
2017-04-21T09:31:00.667Z,35.70
2017-04-21T09:31:46.992Z,35.02
2017-04-21T09:32:46.138Z,38.55
2017-04-21T09:33:45.345Z,35.72
2017-04-21T09:34:44.496Z,36.38
2017-04-21T09:35:44.129Z,36.27
2017-04-21T09:36:44.055Z,37.57
2017-04-21T09:37:43.312Z,32.42
2017-04-21T09:38:43.235Z,31.07
2017-04-21T09:39:42.628Z,39.97
2017-04-21T09:40:41.768Z,33.87
2017-04-21T09:41:40.952Z,38.42
2017-04-21T09:42:40.347Z,40.25
2017-04-21T09:43:39.596Z,41.67
2017-04-21T09:44:38.747Z,33.52
2017-04-21T09:45:37.908Z,35.67
2017-04-21T09:46:37.065Z,35.12
2017-04-21T09:47:36.249Z,36.78
2017-04-21T09:48:35.413Z,38.00
2017-04-21T09:49:34.600Z,33.65
2017-04-21T09:50:33.792Z,34.45
2017-04-21T09:51:32.935Z,35.80
2017-04-21T09:52:32.073Z,36.05
2017-04-21T09:53:31.280Z,34.55
2017-04-21T09:56:05.054Z,34.75
2017-04-21T09:57:02.408Z,35.60
2017-04-21T09:57:23.110Z,37.35
2017-04-21T09:57:55.055Z,36.12
2017-04-21T09:59:53.505Z,40.27
2017-04-21T10:00:25.852Z,32.23
2017-04-21T10:04:21.654Z,35.25
2017-04-21T10:04:32.274Z,35.12
2017-04-21T10:04:42.203Z,36.28
2017-04-21T10:06:25.389Z,38.85
2017-04-21T10:07:56.538Z,32.38
2017-04-21T10:08:21.276Z,36.62
2017-04-21T10:08:21.618Z,32.05
2017-04-21T10:08:22.020Z,32.52
2017-04-21T10:08:22.162Z,36.42
2017-04-21T10:09:19.156Z,37.33
2017-04-21T10:10:18.256Z,38.95
2017-04-21T10:11:17.756Z,38.75
2017-04-21T10:12:16.857Z,37.37
2017-04-21T10:13:15.976Z,39.95
2017-04-21T10:14:15.821Z,35.23
2017-04-21T10:15:14.920Z,37.02
2017-04-21T10:16:14.051Z,34.28
2017-04-21T10:17:14.112Z,34.52
2017-04-21T10:18:13.248Z,36.23
2017-04-21T10:19:12.343Z,40.12
2017-04-21T10:20:11.444Z,36.22
2017-04-21T10:21:10.551Z,39.75
2017-04-21T10:22:09.644Z,39.77
2017-04-21T10:23:08.868Z,38.37
2017-04-21T10:24:07.972Z,38.18
2017-04-21T10:25:07.063Z,35.52
2017-04-21T10:26:06.152Z,36.32
2017-04-21T10:27:05.247Z,38.00
2017-04-21T10:28:04.348Z,39.85
2017-04-21T10:29:03.467Z,41.48
2017-04-21T10:30:02.569Z,37.83
2017-04-21T10:31:02.432Z,37.47
2017-04-21T10:32:01.539Z,37.02
2017-04-21T10:33:00.636Z,35.23
2017-04-21T10:33:59.736Z,35.25
2017-04-21T10:34:58.895Z,36.00
2017-04-21T10:35:57.987Z,40.45
2017-04-21T10:36:57.081Z,44.38
2017-04-21T10:37:56.195Z,39.75
2017-04-21T10:38:55.292Z,40.52
2017-04-21T10:39:54.403Z,43.00
2017-04-21T10:40:53.903Z,35.85
2017-04-21T10:41:53.001Z,36.87
2017-04-21T10:42:52.105Z,40.23
2017-04-21T10:55:09.703Z,40.15
2017-04-21T10:56:09.538Z,38.50
2017-04-21T10:57:08.664Z,37.63
2017-04-21T10:58:07.771Z,37.68
2017-04-21T10:59:06.899Z,42.45
2017-04-21T11:00:05.991Z,38.73
2017-04-21T11:01:05.095Z,45.20
2017-04-21T11:02:04.183Z,40.93
2017-04-21T11:03:03.351Z,41.38
2017-04-21T11:04:02.496Z,35.12
2017-04-21T11:05:02.396Z,40.73
2017-04-21T11:06:02.284Z,37.17
2017-04-21T11:07:01.434Z,40.45
2017-04-21T11:08:00.705Z,41.02
2017-04-21T11:08:59.917Z,40.93
2017-04-21T11:09:59.068Z,37.07
2017-04-21T11:10:58.955Z,38.78
2017-04-21T11:11:58.120Z,42.70
2017-04-21T11:12:57.265Z,41.40
2017-04-21T11:13:56.415Z,39.02
2017-04-21T11:14:56.304Z,38.37
2017-04-21T11:15:55.447Z,37.48
2017-04-21T11:16:54.631Z,39.28
2017-04-21T11:17:53.780Z,36.88
2017-04-21T11:18:52.964Z,39.73
2017-04-21T11:19:52.104Z,45.98
2017-04-21T11:20:51.270Z,38.12
2017-04-21T11:21:50.415Z,37.35
2017-04-21T11:22:49.596Z,38.77
2017-04-21T11:23:48.772Z,37.77
2017-04-21T11:24:48.887Z,38.90
2017-04-21T11:25:48.035Z,43.57
2017-04-21T11:26:47.187Z,39.73
2017-04-21T11:27:46.338Z,40.37
2017-04-21T11:28:45.507Z,39.18
2017-04-21T11:29:44.655Z,37.85
2017-04-21T11:30:44.559Z,36.10
2017-04-21T11:31:44.453Z,40.22
2017-04-21T11:32:43.636Z,39.23
2017-04-21T11:33:42.774Z,39.33
2017-04-21T11:34:41.923Z,40.75
2017-04-21T11:35:41.132Z,39.00
2017-04-21T11:36:40.291Z,38.47
2017-04-21T11:37:39.439Z,45.48
2017-04-21T11:38:38.626Z,39.60
2017-04-21T11:39:37.775Z,39.02
2017-04-21T11:40:37.671Z,39.35
2017-04-21T11:41:37.571Z,40.70
2017-04-21T11:42:36.711Z,40.15
2017-04-21T11:43:35.920Z,39.43
2017-04-21T11:44:35.371Z,40.82
2017-04-21T11:45:34.522Z,40.82
2017-04-21T11:46:34.631Z,40.52
2017-04-21T11:47:34.523Z,40.13
2017-04-21T11:48:33.667Z,40.80
2017-04-21T11:49:32.819Z,43.50
2017-04-21T11:50:32.032Z,41.35
2017-04-21T11:51:31.207Z,43.97
2017-04-21T11:52:31.092Z,38.15
2017-04-21T11:53:30.977Z,39.83
2017-04-21T11:54:30.152Z,43.35
2017-04-21T11:55:29.319Z,38.72
2017-04-21T11:56:28.460Z,37.17
2017-04-21T11:57:28.357Z,37.30
2017-04-21T11:58:27.499Z,36.93
2017-04-21T11:59:26.646Z,42.13
2017-04-21T12:00:26.569Z,37.37
2017-04-21T12:01:25.758Z,43.17
2017-04-21T12:02:24.907Z,43.13
2017-04-21T12:03:24.755Z,36.55
2017-04-21T12:04:23.905Z,38.63
2017-04-21T12:05:23.815Z,40.47
2017-04-21T12:06:23.705Z,39.52
2017-04-21T12:07:22.871Z,39.43
2017-04-21T12:08:22.035Z,44.65
2017-04-21T12:09:21.195Z,33.37
2017-04-21T12:10:20.350Z,38.47
2017-04-21T12:11:20.102Z,38.23
2017-04-21T12:12:19.888Z,38.78
2017-04-21T12:13:19.580Z,40.13
2017-04-21T12:14:18.809Z,37.02
2017-04-21T12:15:17.984Z,38.58
2017-04-21T12:16:17.127Z,41.45
2017-04-21T12:17:16.272Z,37.23
2017-04-21T12:18:15.457Z,43.43
2017-04-21T12:19:14.615Z,43.38
2017-04-21T12:20:13.789Z,38.40
2017-04-21T12:21:13.812Z,38.27
2017-04-21T12:22:12.976Z,36.73
2017-04-21T12:23:13.526Z,40.80
2017-04-21T12:24:12.676Z,40.58
2017-04-21T12:25:12.591Z,38.70
2017-04-21T12:26:12.475Z,39.35
2017-04-21T12:27:11.634Z,37.95
2017-04-21T12:28:10.815Z,39.57
2017-04-21T12:29:09.960Z,41.72
2017-04-21T12:30:09.934Z,42.63
2017-04-21T12:31:09.112Z,39.17
2017-04-21T12:32:08.290Z,41.97
2017-04-21T12:33:07.465Z,39.73
2017-04-21T12:34:06.636Z,41.97
2017-04-21T12:35:05.817Z,38.33
2017-04-21T12:36:04.991Z,37.32
2017-04-21T12:37:04.921Z,34.37
2017-04-21T12:38:04.087Z,38.13
2017-04-21T12:39:04.336Z,43.20
2017-04-21T12:40:03.533Z,37.48
2017-04-21T12:41:02.825Z,33.97
2017-04-21T12:42:02.001Z,42.80
2017-04-21T12:43:01.169Z,39.88
2017-04-21T12:44:00.725Z,36.98
2017-04-21T12:44:59.928Z,40.92
2017-04-21T12:46:00.010Z,40.67
2017-04-21T12:46:59.188Z,38.82
2017-04-21T12:47:58.349Z,37.82
2017-04-21T12:48:57.512Z,40.35
2017-04-21T12:49:57.473Z,41.75
2017-04-21T12:50:56.692Z,39.85
2017-04-21T12:51:56.596Z,43.52
2017-04-21T12:52:56.520Z,36.43
2017-04-21T12:53:55.679Z,38.07
2017-04-21T12:54:54.849Z,39.20
2017-04-21T12:55:54.021Z,39.23